Erie International Tom Ridge Field
KERI : now visible

Airfield :











YOU CAN JOIN US ON...

 
LOGIN :

Register | Disclaimer

   EN    FR    IT 

 









Legend :    VFR   Marginal VFR   IFR   Intensive IFR   Very Intensive IFR
Visi :
Ceiling :
>= 8 km
>= 3000ft
5 to 8 km
1000 to 3000 ft
1500m to 5 km
500 to 1000 ft
800 to 1500m
200 to 500 ft
< 800m
< 200 ft
Symbols :   Thunderstorms  Fog  Heavy snow  Heavy precipitations  Wind > 20 kt







- Airport Elevation : 733 ft
- IATA code : ERI


KERI - Erie International Tom Ridge Field

CURRENT METAR :
  • 192151Z 35005KT 10SM CLR M04/M11 A3060 RMK AO2 SLP376 T10391106

EXPIRED METARs :
  • 192051Z 01004KT 10SM CLR M02/M10 A3060 RMK AO2 SLP376 T10221100 56017
  • 191951Z 32006KT 10SM CLR M03/M10 A3061 RMK AO2 SLP380 T10281100

TAF KERI
Valid from the 19 at 18:00 until the 20 at 18:00 UTC


191731Z 1918/2018 29006KT P6SM FEW200
FM192200 36004KT P6SM FEW250
FM200500 11004KT P6SM BKN250
FM201500 13010KT 4SM -SN OVC040
KZOB FIR / North America



MET'MAP, your aeronautical weather chart ! - Copyright ORBIFLY December 2007 - Disclaimer

ORBIFLY MET'MAP TEAM :

Programming & Development : Alexandra Zaïnal
Concept & Development : Baudouin d'Aumeries
Co-Development & Prog : Marc-Olivier Méhu
Technical & hardware support : Manuel Goepfert

Contact : metmap@orbifly.com




SOURCES & CREDITS :

   NOAA       Earth
Advisory